»·PEaware :: SXGIO KSNA-F70

SXGIO :: KSNA-F70

FLIGHT INFORMATION

Flight Status: Arrived
Operator: Unknown
More flights by this operator :: More flights under this callsign
Pilot: Georgios T. (25786)
Aircraft: CESSNA 172 SKYHAWK
(C172)
More flights by this aircraft type
Origin: KSNA John Wayne-Orange Co
United States
Destination: F70 French Valley
United States
More flights between these airports :: More routes between these airports
Route: SLI V8 PDZ PDZ092/15 JESEX
File this flight plan on PilotEdge
Remarks: CSTP16
Altitude:
(Current/Filed)
5,000ft
Speed:
(Current/Filed)
110kts
Departed: 23-May-20 09:31 AM
Arrived: 23-May-20 10:13 AM
Distance/Time
Traveled:
37nm/0:42
Distance/Time
To Go:
Arrived

Flight Plot

Page will automatically refresh every two minutes.


Map Options




Map Legend


Flown Route
Filed Route
Departure Airport
Arrival Airport
Navaid (VOR, NDB)
Fix

Horizontal Profiles

Position Reports

Time Latitude Longitude Heading Altitude Ground
Speed
23-May-20 09:11 33.672528 -117.872982 208 60ft 0kts
23-May-20 09:12 33.672528 -117.872982 208 60ft 0kts
23-May-20 09:13 33.672528 -117.872982 208 60ft 0kts
23-May-20 09:14 33.672528 -117.872982 208 60ft 0kts
23-May-20 09:15 33.672528 -117.872982 208 60ft 0kts
23-May-20 09:16 33.672528 -117.872982 208 60ft 0kts
23-May-20 09:17 33.672528 -117.872982 208 60ft 0kts
23-May-20 09:18 33.672528 -117.872982 208 60ft 0kts
23-May-20 09:19 33.672528 -117.872982 208 60ft 0kts
23-May-20 09:20 33.672322 -117.872734 103 60ft 7kts
23-May-20 09:21 33.676171 -117.870010 26 60ft 24kts
23-May-20 09:22 33.681275 -117.866793 77 60ft 10kts
23-May-20 09:24 33.681229 -117.866487 121 60ft 0kts
23-May-20 09:25 33.681229 -117.866487 121 60ft 0kts
23-May-20 09:26 33.681229 -117.866487 121 60ft 0kts
23-May-20 09:27 33.681229 -117.866487 121 60ft 0kts
23-May-20 09:28 33.681229 -117.866487 121 60ft 0kts
23-May-20 09:29 33.681229 -117.866487 121 60ft 0kts
23-May-20 09:30 33.680414 -117.865839 209 60ft 12kts
23-May-20 09:31 33.664597 -117.879031 237 734ft 87kts
23-May-20 09:32 33.653638 -117.905194 242 1798ft 85kts
23-May-20 09:33 33.641905 -117.934604 237 2379ft 97kts
23-May-20 09:34 33.630195 -117.961616 238 3419ft 85kts
23-May-20 09:35 33.619153 -117.986048 237 4323ft 83kts
23-May-20 09:36 33.627787 -118.006915 355 5014ft 107kts
23-May-20 09:37 33.653364 -117.984982 45 5021ft 123kts
23-May-20 09:37 33.674436 -117.962906 40 5021ft 122kts
23-May-20 09:39 33.704245 -117.932502 39 5024ft 123kts
23-May-20 09:40 33.728938 -117.907763 39 5028ft 123kts
23-May-20 09:40 33.750243 -117.886393 39 5031ft 123kts
23-May-20 09:41 33.774069 -117.862482 40 5035ft 123kts
23-May-20 09:43 33.804500 -117.831887 41 5040ft 121kts
23-May-20 09:43 33.824265 -117.811978 39 5038ft 105kts
23-May-20 09:44 33.846411 -117.789724 38 5032ft 104kts
23-May-20 09:46 33.861211 -117.753075 69 5024ft 109kts
23-May-20 09:46 33.868765 -117.723927 69 5021ft 109kts
23-May-20 09:47 33.877837 -117.688622 69 5017ft 110kts
23-May-20 09:48 33.886898 -117.653166 70 5014ft 111kts
23-May-20 09:49 33.895985 -117.617631 70 5012ft 111kts
23-May-20 09:50 33.905070 -117.582066 70 5009ft 111kts
23-May-20 09:51 33.914221 -117.546201 69 5006ft 112kts
23-May-20 09:52 33.912958 -117.509249 105 5002ft 116kts
23-May-20 09:53 33.903352 -117.471737 105 5003ft 117kts
23-May-20 09:54 33.889312 -117.436290 121 5007ft 117kts
23-May-20 09:55 33.873390 -117.402170 120 5015ft 117kts
23-May-20 09:56 33.858072 -117.367561 120 5024ft 117kts
23-May-20 09:57 33.843051 -117.332900 121 5029ft 116kts
23-May-20 09:58 33.828320 -117.298521 121 5030ft 114kts
23-May-20 09:59 33.813931 -117.264938 120 5033ft 112kts
23-May-20 10:00 33.798862 -117.232434 120 5034ft 111kts
23-May-20 10:01 33.781557 -117.201368 120 5032ft 112kts
23-May-20 10:02 33.761714 -117.172004 135 5038ft 114kts
23-May-20 10:03 33.735336 -117.149181 151 4746ft 120kts
23-May-20 10:04 33.705969 -117.131939 154 4389ft 117kts
23-May-20 10:05 33.675376 -117.119464 170 4028ft 115kts
23-May-20 10:06 33.643380 -117.120605 191 3445ft 113kts
23-May-20 10:07 33.614546 -117.127458 192 2795ft 101kts
23-May-20 10:08 33.586629 -117.135789 195 2765ft 103kts
23-May-20 10:09 33.571871 -117.119502 49 2585ft 103kts
23-May-20 10:10 33.595779 -117.112064 0 2183ft 82kts
23-May-20 10:11 33.589756 -117.124428 193 1607ft 72kts
23-May-20 10:12 33.575733 -117.128075 192 1354ft 27kts
23-May-20 10:13 33.574642 -117.129474 189 1354ft 0kts
23-May-20 10:14 33.574642 -117.129474 189 1354ft 0kts
23-May-20 10:15 33.574642 -117.129474 189 1354ft 0kts
23-May-20 10:16 33.574642 -117.129474 189 1354ft 0kts
23-May-20 10:17 33.574642 -117.129474 189 1354ft 0kts

Navigation Log

Ident Type
Flight plan parsing failed, navigation log unavailable